createdAt,value
2023-05-02T00:01:11.268Z,99.90
2023-05-02T00:03:46.548Z,99.90
2023-05-02T00:06:17.927Z,99.90
2023-05-02T00:08:51.641Z,99.90
2023-05-02T00:11:33.510Z,99.90
2023-05-02T00:14:04.817Z,99.90
2023-05-02T00:17:06.969Z,99.90
2023-05-02T00:19:46.288Z,99.90
2023-05-02T00:22:19.694Z,99.90
2023-05-02T00:24:57.420Z,99.90
2023-05-02T00:27:38.495Z,99.90
2023-05-02T00:30:27.783Z,99.90
2023-05-02T00:33:18.144Z,99.90
2023-05-02T00:36:00.064Z,99.90
2023-05-02T00:38:30.792Z,99.90
2023-05-02T00:41:14.234Z,99.90
2023-05-02T00:43:55.284Z,99.90
2023-05-02T00:46:31.377Z,99.90
2023-05-02T00:49:10.224Z,99.90
2023-05-02T00:51:53.481Z,99.90
2023-05-02T00:54:29.028Z,99.90
2023-05-02T00:56:57.959Z,99.90
2023-05-02T00:59:37.072Z,99.90
2023-05-02T01:02:39.660Z,99.90
2023-05-02T01:05:26.812Z,99.90
2023-05-02T01:08:12.641Z,99.90
2023-05-02T01:10:57.258Z,99.90
2023-05-02T01:13:43.800Z,99.90
2023-05-02T01:16:27.154Z,99.90
2023-05-02T01:19:08.395Z,99.90
2023-05-02T01:21:46.660Z,99.90
2023-05-02T01:24:39.302Z,99.90
2023-05-02T01:27:29.729Z,99.90
2023-05-02T01:30:12.494Z,99.90
2023-05-02T01:32:47.278Z,99.90
2023-05-02T01:35:25.494Z,99.90
2023-05-02T01:38:01.888Z,99.90
2023-05-02T01:40:43.353Z,99.90
2023-05-02T01:43:16.359Z,99.90
2023-05-02T01:45:54.572Z,99.90
2023-05-02T01:48:35.374Z,99.90
2023-05-02T01:51:08.084Z,99.90
2023-05-02T01:53:46.602Z,99.90
2023-05-02T01:56:27.913Z,99.90
2023-05-02T01:59:04.058Z,99.90
2023-05-02T02:01:41.742Z,99.90
2023-05-02T02:04:18.174Z,99.90
2023-05-02T02:06:57.167Z,99.90
2023-05-02T02:09:35.225Z,99.90
2023-05-02T02:12:12.958Z,99.90
2023-05-02T02:14:46.828Z,99.90
2023-05-02T02:17:31.633Z,99.90
2023-05-02T02:20:10.968Z,99.90
2023-05-02T02:22:46.913Z,99.90
2023-05-02T02:25:22.367Z,99.90
2023-05-02T02:27:59.104Z,99.90
2023-05-02T02:30:33.781Z,99.90
2023-05-02T02:33:10.930Z,99.90
2023-05-02T02:36:02.477Z,99.90
2023-05-02T02:38:50.594Z,99.90
2023-05-02T02:41:30.894Z,99.90
2023-05-02T02:44:13.822Z,99.90
2023-05-02T02:47:03.071Z,99.90
2023-05-02T02:49:51.867Z,99.90
2023-05-02T02:52:41.721Z,99.90
2023-05-02T02:55:21.242Z,99.90
2023-05-02T02:58:03.605Z,99.90
2023-05-02T03:00:34.314Z,99.90
2023-05-02T03:03:02.414Z,99.90
2023-05-02T03:05:37.817Z,99.90
2023-05-02T03:08:08.215Z,99.90
2023-05-02T03:10:46.166Z,99.90
2023-05-02T03:13:28.412Z,99.90
2023-05-02T03:16:34.386Z,99.90
2023-05-02T03:19:02.466Z,99.90
2023-05-02T03:21:32.425Z,99.90
2023-05-02T03:24:03.482Z,99.90
2023-05-02T03:26:34.054Z,99.90
2023-05-02T03:29:02.063Z,99.90
2023-05-02T03:31:30.397Z,99.90
2023-05-02T03:33:58.623Z,99.90
2023-05-02T03:36:31.917Z,99.90
2023-05-02T03:39:00.489Z,99.90
2023-05-02T03:41:34.423Z,99.90
2023-05-02T03:44:05.206Z,99.90
2023-05-02T03:46:44.527Z,99.90
2023-05-02T03:49:24.033Z,99.90
2023-05-02T03:52:02.542Z,99.90
2023-05-02T03:54:38.762Z,99.90
2023-05-02T03:57:08.028Z,99.90
2023-05-02T03:59:41.867Z,99.90
2023-05-02T04:02:11.506Z,99.90
2023-05-02T04:04:40.907Z,99.90
2023-05-02T04:07:15.785Z,99.90
2023-05-02T04:09:43.969Z,99.90
2023-05-02T04:12:12.287Z,99.90
2023-05-02T04:14:40.410Z,99.90
2023-05-02T04:17:08.765Z,99.90
2023-05-02T04:19:37.196Z,99.90
2023-05-02T04:22:05.208Z,99.90
2023-05-02T04:24:34.911Z,99.90
2023-05-02T04:27:02.980Z,99.90
2023-05-02T04:29:31.077Z,99.90
2023-05-02T04:31:59.438Z,99.90
2023-05-02T04:34:28.497Z,99.90
2023-05-02T04:36:56.604Z,99.90
2023-05-02T04:39:24.777Z,99.90
2023-05-02T04:41:54.583Z,99.90
2023-05-02T04:44:22.916Z,99.90
2023-05-02T04:46:51.064Z,99.90
2023-05-02T04:49:19.219Z,99.90
2023-05-02T04:51:47.320Z,99.90
2023-05-02T04:54:15.852Z,99.90
2023-05-02T04:56:43.987Z,99.90
2023-05-02T04:59:13.605Z,99.90
2023-05-02T05:01:41.790Z,99.90
2023-05-02T05:04:15.481Z,99.90
2023-05-02T05:06:45.097Z,99.90
2023-05-02T05:09:19.940Z,99.90
2023-05-02T05:11:51.967Z,99.90
2023-05-02T05:14:30.596Z,99.90
2023-05-02T05:17:29.584Z,99.90
2023-05-02T05:19:58.106Z,99.90
2023-05-02T05:22:30.292Z,99.90
2023-05-02T05:25:04.951Z,99.90
2023-05-02T05:27:49.097Z,99.90
2023-05-02T05:30:48.943Z,99.90
2023-05-02T05:33:38.812Z,99.90
2023-05-02T05:39:24.020Z,99.90
2023-05-02T05:41:54.736Z,99.90
2023-05-02T05:44:44.703Z,99.90
2023-05-02T05:47:26.280Z,99.90
2023-05-02T05:49:56.881Z,99.90
2023-05-02T05:52:38.693Z,99.90
2023-05-02T05:55:31.064Z,99.90
2023-05-02T05:58:27.678Z,99.90
2023-05-02T06:01:32.619Z,99.90
2023-05-02T06:04:21.723Z,99.90
2023-05-02T06:07:31.039Z,99.90
2023-05-02T06:10:22.497Z,99.90
2023-05-02T06:13:18.998Z,99.90
2023-05-02T06:19:30.994Z,99.90
2023-05-02T06:21:59.574Z,99.90
2023-05-02T06:24:35.127Z,99.90
2023-05-02T06:27:07.604Z,99.90
2023-05-02T06:33:10.766Z,99.90
2023-05-02T06:36:18.530Z,99.90
2023-05-02T06:39:09.649Z,99.90
2023-05-02T06:42:00.354Z,99.90
2023-05-02T06:45:07.160Z,99.90
2023-05-02T06:47:35.821Z,99.90
2023-05-02T06:50:33.262Z,99.90
2023-05-02T06:56:34.611Z,99.90
2023-05-02T06:59:04.579Z,99.90
2023-05-02T07:01:43.019Z,99.90
2023-05-02T07:04:21.818Z,99.90
2023-05-02T07:06:57.586Z,99.90
2023-05-02T07:09:45.686Z,99.90
2023-05-02T07:12:16.405Z,99.90
2023-05-02T07:14:55.797Z,99.90
2023-05-02T07:17:32.246Z,99.90
2023-05-02T07:20:05.994Z,99.90
2023-05-02T07:22:42.120Z,99.90
2023-05-02T07:25:19.575Z,99.90
2023-05-02T07:27:54.120Z,99.90
2023-05-02T07:30:34.202Z,99.90
2023-05-02T07:33:07.811Z,99.90
2023-05-02T07:35:44.493Z,99.90
2023-05-02T07:38:28.870Z,99.90
2023-05-02T07:41:04.411Z,99.90
2023-05-02T07:43:38.938Z,99.90
2023-05-02T07:46:24.730Z,99.90
2023-05-02T07:48:58.556Z,99.90
2023-05-02T07:51:56.693Z,99.90
2023-05-02T07:54:40.381Z,99.90
2023-05-02T07:57:23.798Z,99.90
2023-05-02T08:00:01.019Z,99.90
2023-05-02T08:02:40.577Z,99.90
2023-05-02T08:05:22.279Z,99.90
2023-05-02T08:08:06.203Z,99.90
2023-05-02T08:10:45.900Z,99.90
2023-05-02T08:13:51.538Z,99.90
2023-05-02T08:16:25.710Z,99.90
2023-05-02T08:19:04.513Z,99.90
2023-05-02T08:21:55.239Z,99.90
2023-05-02T08:24:49.689Z,99.90
2023-05-02T08:27:36.019Z,99.90
2023-05-02T08:30:15.321Z,99.90
2023-05-02T08:33:03.409Z,99.90
2023-05-02T08:35:38.575Z,99.90
2023-05-02T08:38:30.681Z,99.90
2023-05-02T08:41:21.372Z,99.90
2023-05-02T08:44:12.994Z,99.90
2023-05-02T08:47:04.809Z,99.90
2023-05-02T08:50:51.010Z,99.90
2023-05-02T08:53:19.460Z,99.90
2023-05-02T08:55:52.898Z,99.90
2023-05-02T08:58:35.126Z,99.90
2023-05-02T09:01:20.992Z,99.90
2023-05-02T09:03:56.204Z,99.90
2023-05-02T09:06:46.624Z,99.90
2023-05-02T09:09:31.831Z,99.90
2023-05-02T09:12:25.533Z,99.90
2023-05-02T09:15:41.115Z,99.90
2023-05-02T09:18:43.891Z,99.90
2023-05-02T09:21:19.765Z,99.90
2023-05-02T09:23:57.184Z,99.90
2023-05-02T09:26:29.504Z,99.90
2023-05-02T09:29:03.203Z,99.90
2023-05-02T09:34:32.651Z,99.90
2023-05-02T09:37:16.743Z,99.90
2023-05-02T09:43:35.352Z,99.90
2023-05-02T09:46:26.039Z,99.90
2023-05-02T09:49:05.537Z,99.90
2023-05-02T09:51:44.253Z,99.90
2023-05-02T09:54:40.917Z,99.90
2023-05-02T09:57:48.003Z,99.90
2023-05-02T10:00:46.643Z,99.90
2023-05-02T10:03:21.194Z,99.90
2023-05-02T10:06:21.625Z,99.90
2023-05-02T10:09:09.361Z,99.90
2023-05-02T10:12:15.097Z,99.90
2023-05-02T10:14:50.976Z,99.90
2023-05-02T10:17:24.494Z,99.90
2023-05-02T10:19:58.046Z,99.90
2023-05-02T10:22:27.019Z,99.90
2023-05-02T10:24:56.191Z,99.90
2023-05-02T10:27:25.975Z,99.90
2023-05-02T10:29:55.179Z,99.90
2023-05-02T10:32:25.763Z,99.90
2023-05-02T10:34:55.503Z,99.90
2023-05-02T10:37:24.922Z,99.90
2023-05-02T10:39:53.323Z,99.90
2023-05-02T10:42:21.810Z,99.90
2023-05-02T10:44:52.467Z,99.90
2023-05-02T10:47:22.031Z,99.90
2023-05-02T10:49:54.559Z,99.90
2023-05-02T10:52:30.243Z,99.90
2023-05-02T10:55:21.446Z,99.90
2023-05-02T10:58:25.993Z,99.90
2023-05-02T11:00:55.537Z,99.90
2023-05-02T11:03:57.680Z,99.90
2023-05-02T11:06:26.295Z,99.90
2023-05-02T11:08:54.969Z,99.90
2023-05-02T11:11:42.899Z,99.90
2023-05-02T11:14:13.575Z,99.90
2023-05-02T11:17:09.375Z,99.90
2023-05-02T11:20:19.968Z,99.90
2023-05-02T11:22:48.107Z,99.90
2023-05-02T11:25:31.509Z,99.70
2023-05-02T11:27:59.760Z,98.60
2023-05-02T11:30:42.172Z,97.70
2023-05-02T11:33:17.282Z,99.30
2023-05-02T11:35:46.765Z,98.90
2023-05-02T11:38:20.531Z,97.60
2023-05-02T11:41:06.586Z,95.70
2023-05-02T11:43:34.793Z,92.90
2023-05-02T11:46:03.615Z,91.90
2023-05-02T11:48:33.336Z,91.10
2023-05-02T11:51:05.043Z,90.90
2023-05-02T11:53:34.017Z,90.20
2023-05-02T11:56:09.330Z,89.50
2023-05-02T11:58:41.299Z,86.50
2023-05-02T12:01:16.543Z,89.90
2023-05-02T12:03:52.896Z,91.60
2023-05-02T12:06:42.253Z,93.10
2023-05-02T12:09:35.814Z,92.10
2023-05-02T12:12:34.864Z,91.50
2023-05-02T12:18:38.952Z,93.60
2023-05-02T12:21:32.058Z,94.10
2023-05-02T12:24:04.702Z,94.70
2023-05-02T12:26:51.210Z,95.50
2023-05-02T12:29:58.073Z,95.20
2023-05-02T12:32:55.307Z,95.00
2023-05-02T12:35:52.806Z,94.80
2023-05-02T12:38:23.538Z,95.30
2023-05-02T12:40:53.126Z,96.00
2023-05-02T12:43:22.024Z,96.50
2023-05-02T12:45:51.764Z,96.90
2023-05-02T12:48:27.223Z,96.00
2023-05-02T12:50:56.404Z,96.50
2023-05-02T12:53:43.294Z,96.00
2023-05-02T12:56:13.277Z,94.80
2023-05-02T12:58:46.277Z,94.10
2023-05-02T13:01:15.117Z,92.50
2023-05-02T13:03:43.826Z,92.50
2023-05-02T13:06:12.570Z,90.10
2023-05-02T13:08:42.175Z,87.90
2023-05-02T13:11:10.470Z,87.70
2023-05-02T13:13:38.484Z,84.10
2023-05-02T13:16:08.079Z,79.90
2023-05-02T13:18:36.368Z,77.20
2023-05-02T13:21:05.170Z,72.70
2023-05-02T13:23:33.194Z,70.00
2023-05-02T13:26:02.716Z,67.20
2023-05-02T13:28:33.325Z,66.60
2023-05-02T13:31:01.394Z,66.30
2023-05-02T13:33:29.893Z,64.40
2023-05-02T13:35:57.868Z,63.30
2023-05-02T13:38:26.851Z,64.10
2023-05-02T13:40:55.037Z,61.70
2023-05-02T13:43:25.147Z,59.90
2023-05-02T13:45:53.356Z,61.30
2023-05-02T13:48:21.302Z,62.60
2023-05-02T13:50:49.305Z,62.10
2023-05-02T13:53:17.435Z,61.50
2023-05-02T13:55:45.414Z,66.30
2023-05-02T13:58:13.507Z,65.30
2023-05-02T14:00:43.030Z,67.20
2023-05-02T14:03:12.198Z,69.10
2023-05-02T14:05:46.091Z,73.20
2023-05-02T14:08:28.944Z,76.10
2023-05-02T14:11:21.463Z,77.70
2023-05-02T14:14:10.623Z,78.40
2023-05-02T14:16:50.662Z,83.30
2023-05-02T14:20:12.152Z,87.50
2023-05-02T14:22:58.876Z,89.40
2023-05-02T14:25:30.022Z,90.50
2023-05-02T14:28:12.049Z,90.60
2023-05-02T14:30:42.544Z,90.70
2023-05-02T14:33:47.230Z,91.10
2023-05-02T14:36:37.417Z,91.60
2023-05-02T14:39:34.946Z,90.90
2023-05-02T14:42:10.391Z,90.70
2023-05-02T14:44:51.205Z,90.70
2023-05-02T14:47:30.062Z,90.40
2023-05-02T14:50:09.818Z,90.30
2023-05-02T14:53:02.169Z,90.10
2023-05-02T14:55:30.424Z,89.80
2023-05-02T14:58:17.740Z,88.70
2023-05-02T15:00:50.774Z,88.60
2023-05-02T15:03:23.585Z,88.70
2023-05-02T15:05:53.493Z,90.00
2023-05-02T15:11:38.631Z,88.80
2023-05-02T15:14:15.612Z,90.00
2023-05-02T15:19:39.634Z,86.50
2023-05-02T15:22:48.729Z,88.70
2023-05-02T15:25:26.293Z,86.70
2023-05-02T15:28:12.837Z,86.00
2023-05-02T15:30:46.753Z,85.00
2023-05-02T15:36:33.009Z,85.60
2023-05-02T15:39:20.265Z,86.10
2023-05-02T15:42:03.134Z,86.60
2023-05-02T15:44:55.113Z,88.00
2023-05-02T15:47:38.863Z,88.50
2023-05-02T15:50:31.039Z,88.60
2023-05-02T15:53:23.158Z,89.60
2023-05-02T15:56:08.651Z,89.70
2023-05-02T15:59:09.146Z,89.90
2023-05-02T16:02:07.774Z,89.70
2023-05-02T16:04:39.082Z,87.50
2023-05-02T16:07:12.928Z,87.70
2023-05-02T16:09:50.087Z,88.40
2023-05-02T16:12:39.550Z,90.00
2023-05-02T16:15:12.590Z,90.00
2023-05-02T16:17:47.120Z,89.70
2023-05-02T16:20:21.960Z,89.20
2023-05-02T16:22:58.341Z,89.70
2023-05-02T16:26:14.104Z,90.10
2023-05-02T16:28:46.428Z,90.60
2023-05-02T16:31:47.367Z,91.10
2023-05-02T16:34:28.181Z,91.70
2023-05-02T16:37:13.595Z,91.70
2023-05-02T16:39:52.817Z,91.70
2023-05-02T16:42:27.092Z,91.60
2023-05-02T16:45:09.620Z,91.10
2023-05-02T16:47:53.059Z,91.30
2023-05-02T16:50:24.133Z,90.50
2023-05-02T16:53:04.568Z,90.30
2023-05-02T16:55:39.936Z,90.40
2023-05-02T16:58:13.357Z,90.70
2023-05-02T17:00:55.370Z,90.70
2023-05-02T17:03:30.880Z,90.60
2023-05-02T17:06:07.922Z,90.80
2023-05-02T17:08:59.299Z,90.80
2023-05-02T17:11:53.257Z,91.30
2023-05-02T17:14:35.888Z,91.30
2023-05-02T17:17:26.275Z,91.40
2023-05-02T17:20:25.247Z,91.20
2023-05-02T17:22:58.309Z,91.20
2023-05-02T17:25:26.983Z,91.10
2023-05-02T17:27:55.702Z,91.30
2023-05-02T17:30:30.235Z,91.10
2023-05-02T17:33:03.099Z,91.40
2023-05-02T17:35:37.057Z,91.90
2023-05-02T17:38:08.453Z,91.90
2023-05-02T17:40:38.094Z,92.20
2023-05-02T17:43:13.788Z,92.10
2023-05-02T17:45:47.374Z,92.10
2023-05-02T17:48:17.386Z,92.20
2023-05-02T17:50:45.665Z,92.10
2023-05-02T17:53:15.464Z,92.30
2023-05-02T17:55:45.235Z,92.00
2023-05-02T17:58:16.837Z,92.00
2023-05-02T18:01:34.212Z,92.30
2023-05-02T18:04:38.791Z,92.70
2023-05-02T18:07:09.311Z,93.00
2023-05-02T18:09:37.682Z,93.10
2023-05-02T18:12:06.282Z,93.50
2023-05-02T18:14:35.124Z,93.60
2023-05-02T18:17:04.870Z,93.80
2023-05-02T18:19:35.060Z,94.00
2023-05-02T18:22:03.164Z,94.00
2023-05-02T18:24:32.598Z,94.30
2023-05-02T18:27:01.108Z,94.70
2023-05-02T18:29:29.203Z,94.30
2023-05-02T18:31:57.937Z,94.40
2023-05-02T18:34:26.276Z,94.70
2023-05-02T18:36:56.258Z,94.80
2023-05-02T18:39:24.573Z,94.80
2023-05-02T18:41:52.768Z,95.00
2023-05-02T18:44:20.961Z,95.20
2023-05-02T18:46:49.261Z,95.30
2023-05-02T18:49:17.720Z,95.50
2023-05-02T18:51:46.033Z,95.60
2023-05-02T18:54:16.073Z,95.80
2023-05-02T18:56:44.247Z,96.00
2023-05-02T18:59:12.604Z,96.20
2023-05-02T19:01:41.158Z,96.40
2023-05-02T19:04:09.262Z,96.70
2023-05-02T19:06:37.705Z,97.00
2023-05-02T19:09:06.205Z,97.10
2023-05-02T19:11:36.741Z,97.20
2023-05-02T19:14:05.494Z,97.20
2023-05-02T19:16:35.004Z,97.20
2023-05-02T19:19:03.816Z,97.30
2023-05-02T19:21:32.061Z,97.30
2023-05-02T19:24:00.397Z,97.40
2023-05-02T19:26:28.590Z,97.50
2023-05-02T19:28:58.514Z,97.60
2023-05-02T19:31:27.034Z,97.90
2023-05-02T19:33:55.324Z,98.00
2023-05-02T19:36:24.819Z,98.40
2023-05-02T19:38:54.265Z,98.50
2023-05-02T19:41:23.325Z,98.50
2023-05-02T19:43:52.171Z,98.60
2023-05-02T19:46:21.894Z,98.60
2023-05-02T19:48:50.129Z,98.50
2023-05-02T19:51:22.127Z,98.70
2023-05-02T19:53:50.408Z,98.90
2023-05-02T19:56:18.655Z,98.70
2023-05-02T19:58:46.953Z,98.70
2023-05-02T20:01:15.220Z,98.50
2023-05-02T20:03:45.142Z,98.50
2023-05-02T20:06:13.342Z,98.60
2023-05-02T20:08:41.772Z,98.60
2023-05-02T20:11:09.936Z,98.80
2023-05-02T20:13:38.409Z,98.80
2023-05-02T20:16:07.543Z,98.90
2023-05-02T20:18:35.768Z,99.10
2023-05-02T20:21:05.699Z,99.20
2023-05-02T20:23:33.985Z,99.50
2023-05-02T20:26:02.084Z,99.50
2023-05-02T20:28:30.393Z,99.70
2023-05-02T20:30:58.801Z,99.80
2023-05-02T20:33:36.916Z,99.80
2023-05-02T20:36:13.353Z,99.90
2023-05-02T20:38:42.666Z,99.90
2023-05-02T20:41:12.588Z,99.90
2023-05-02T20:43:41.564Z,99.90
2023-05-02T20:46:13.164Z,99.90
2023-05-02T20:48:41.491Z,99.90
2023-05-02T20:51:11.051Z,99.90
2023-05-02T20:53:39.153Z,99.90
2023-05-02T20:56:07.416Z,99.90
2023-05-02T20:58:35.553Z,99.90
2023-05-02T21:01:03.688Z,99.90
2023-05-02T21:03:32.167Z,99.90
2023-05-02T21:06:00.547Z,99.90
2023-05-02T21:08:30.083Z,99.90
2023-05-02T21:10:58.142Z,99.90
2023-05-02T21:13:26.864Z,99.90
2023-05-02T21:15:55.263Z,99.90
2023-05-02T21:18:23.468Z,99.90
2023-05-02T21:20:51.768Z,99.90
2023-05-02T21:23:19.824Z,99.90
2023-05-02T21:25:49.359Z,99.90
2023-05-02T21:28:17.495Z,99.90
2023-05-02T21:30:45.633Z,99.90
2023-05-02T21:33:15.611Z,99.90
2023-05-02T21:35:43.914Z,99.90
2023-05-02T21:38:12.082Z,99.90
2023-05-02T21:40:40.167Z,99.90
2023-05-02T21:43:09.738Z,99.90
2023-05-02T21:45:45.385Z,99.90
2023-05-02T21:48:13.872Z,99.90
2023-05-02T21:50:42.880Z,99.90
2023-05-02T21:53:11.568Z,99.90
2023-05-02T21:55:41.054Z,99.90
2023-05-02T21:58:11.838Z,99.90
2023-05-02T22:00:41.444Z,99.90
2023-05-02T22:03:12.029Z,99.90
2023-05-02T22:05:41.425Z,99.90
2023-05-02T22:08:11.012Z,99.90
2023-05-02T22:10:40.457Z,99.90
2023-05-02T22:13:12.405Z,99.90
2023-05-02T22:15:42.855Z,99.90
2023-05-02T22:18:11.084Z,99.90
2023-05-02T22:20:39.582Z,99.90
2023-05-02T22:23:08.579Z,99.90
2023-05-02T22:25:50.769Z,99.90
2023-05-02T22:28:34.901Z,99.90
2023-05-02T22:31:16.483Z,99.90
2023-05-02T22:33:45.790Z,99.90
2023-05-02T22:36:13.887Z,99.90
2023-05-02T22:38:41.924Z,99.90
2023-05-02T22:41:10.459Z,99.90
2023-05-02T22:43:40.092Z,99.90
2023-05-02T22:46:08.289Z,99.90
2023-05-02T22:48:36.502Z,99.90
2023-05-02T22:51:04.756Z,99.90
2023-05-02T22:53:47.913Z,99.90
2023-05-02T22:56:54.845Z,99.90
2023-05-02T23:00:15.557Z,99.90
2023-05-02T23:03:32.035Z,99.90
2023-05-02T23:06:22.391Z,99.90
2023-05-02T23:12:16.118Z,99.90
2023-05-02T23:15:08.138Z,99.90
2023-05-02T23:18:02.109Z,99.90
2023-05-02T23:20:48.790Z,99.90
2023-05-02T23:23:26.479Z,99.90
2023-05-02T23:26:37.927Z,99.90
2023-05-02T23:32:30.030Z,99.90
2023-05-02T23:35:26.922Z,99.90
2023-05-02T23:38:19.560Z,99.90
2023-05-02T23:40:58.206Z,99.90
2023-05-02T23:43:43.749Z,99.90
2023-05-02T23:46:43.986Z,99.90
2023-05-02T23:49:32.853Z,99.90
2023-05-02T23:52:28.150Z,99.90
2023-05-02T23:55:29.866Z,99.90
2023-05-02T23:58:25.752Z,99.90
